Time;durP1;ratioP1;P1;durP2;ratioP2;P2;SDS_P1;SDS_P2;PMS_P1;PMS_P2;Temp;Humidity;BMP_temperature;BMP_pressure;BME280_temperature;BME280_humidity;BME280_pressure;Samples;Min_cycle;Max_cycle;Signal;HPM_P1;HPM_P2
2022/03/21 00:00:59;;;;;;;17.83;11.10;;;;;;;3.40;40.36;103076.81;7401846;19;20035;-64
2022/03/21 00:03:28;;;;;;;15.57;10.65;;;;;;;3.38;40.60;103077.56;7399031;19;20039;-64
2022/03/21 00:05:58;;;;;;;16.35;11.25;;;;;;;3.34;40.67;103083.44;7398878;19;20019;-64
2022/03/21 00:08:26;;;;;;;15.95;11.38;;;;;;;3.30;40.56;103074.63;7398867;19;20026;-64
2022/03/21 00:10:56;;;;;;;17.02;10.77;;;;;;;3.28;40.71;103068.44;7398529;19;20018;-67
2022/03/21 00:13:26;;;;;;;15.80;11.25;;;;;;;3.26;40.55;103077.88;7400293;19;20018;-66
2022/03/21 00:15:58;;;;;;;17.20;11.90;;;;;;;3.24;40.87;103076.94;7401732;19;20099;-67
2022/03/21 00:18:27;;;;;;;16.27;10.80;;;;;;;3.18;40.82;103079.22;7398842;19;20022;-66
2022/03/21 00:20:56;;;;;;;15.85;10.80;;;;;;;3.18;40.91;103079.22;7401194;19;20041;-73
2022/03/21 00:23:26;;;;;;;18.38;11.27;;;;;;;3.17;40.90;103080.03;7399600;19;20033;-70
2022/03/21 00:25:55;;;;;;;18.42;11.23;;;;;;;3.14;40.69;103075.59;7401125;19;20007;-66
2022/03/21 00:28:24;;;;;;;15.07;10.70;;;;;;;3.10;40.71;103074.56;7398378;19;20021;-66
2022/03/21 00:30:52;;;;;;;15.13;11.00;;;;;;;3.08;41.01;103076.22;7399216;19;20019;-65
2022/03/21 00:33:23;;;;;;;18.58;11.98;;;;;;;3.06;40.94;103080.44;7399329;19;20025;-65
2022/03/21 00:35:52;;;;;;;18.08;11.57;;;;;;;3.03;40.95;103076.81;7400909;19;20019;-66
2022/03/21 00:38:21;;;;;;;16.02;11.15;;;;;;;3.00;40.99;103084.47;7397981;19;20015;-65
2022/03/21 00:40:50;;;;;;;16.08;12.88;;;;;;;2.97;41.21;103092.06;7400472;19;20022;-65
2022/03/21 00:43:21;;;;;;;15.27;11.60;;;;;;;2.95;41.22;103089.41;7399137;19;20099;-65
2022/03/21 00:45:50;;;;;;;15.38;11.35;;;;;;;2.91;41.38;103093.56;7400574;19;20082;-65
2022/03/21 00:48:18;;;;;;;15.05;11.57;;;;;;;2.88;41.42;103092.53;7397852;19;20053;-65
2022/03/21 00:50:49;;;;;;;15.02;10.88;;;;;;;2.86;41.21;103095.06;7398312;19;20403;-65
2022/03/21 00:53:18;;;;;;;16.83;10.88;;;;;;;2.83;41.20;103087.13;7396362;19;20465;-67
2022/03/21 00:55:48;;;;;;;17.33;10.57;;;;;;;2.80;41.15;103083.50;7399434;19;20029;-65
2022/03/21 00:58:17;;;;;;;16.08;11.23;;;;;;;2.79;41.24;103082.59;7399405;19;20349;-66
2022/03/21 01:00:45;;;;;;;15.05;11.07;;;;;;;2.77;41.53;103084.25;7399787;19;20022;-66
2022/03/21 01:03:13;;;;;;;14.90;10.98;;;;;;;2.74;41.49;103078.91;7396852;19;20389;-66
2022/03/21 01:05:42;;;;;;;16.15;10.68;;;;;;;2.71;41.68;103077.06;7399581;19;20031;-66
2022/03/21 01:08:12;;;;;;;18.13;11.23;;;;;;;2.69;41.81;103080.38;7399475;19;20031;-66
2022/03/21 01:10:40;;;;;;;15.85;10.38;;;;;;;2.65;41.60;103074.16;7398705;19;20015;-66
2022/03/21 01:13:09;;;;;;;16.75;11.15;;;;;;;2.63;41.70;103080.09;7398374;19;20040;-66
2022/03/21 01:15:37;;;;;;;14.98;10.75;;;;;;;2.61;41.74;103074.84;7396664;19;20383;-66
2022/03/21 01:18:05;;;;;;;19.85;11.55;;;;;;;2.59;41.83;103085.13;7397138;19;20022;-66
2022/03/21 01:20:33;;;;;;;16.92;10.68;;;;;;;2.57;41.58;103072.91;7399090;19;20035;-66
2022/03/21 01:23:01;;;;;;;15.27;10.70;;;;;;;2.57;41.80;103085.88;7398243;19;20035;-66
2022/03/21 01:25:32;;;;;;;14.43;10.13;;;;;;;2.56;41.72;103079.78;7396869;19;20040;-66
2022/03/21 01:28:00;;;;;;;14.93;9.95;;;;;;;2.54;41.91;103075.34;7397029;19;20027;-66
2022/03/21 01:30:28;;;;;;;13.93;10.85;;;;;;;2.53;41.76;103078.78;7396497;19;20022;-66
2022/03/21 01:32:56;;;;;;;15.68;11.75;;;;;;;2.51;41.79;103080.38;7398149;19;20031;-66
2022/03/21 01:35:24;;;;;;;18.42;12.15;;;;;;;2.49;42.03;103077.72;7396520;19;20026;-66
2022/03/21 01:37:53;;;;;;;15.75;11.23;;;;;;;2.47;42.12;103083.66;7398189;19;20499;-66
2022/03/21 01:40:21;;;;;;;16.15;10.98;;;;;;;2.41;42.25;103085.13;7396406;19;20042;-66
2022/03/21 01:42:51;;;;;;;21.27;11.73;;;;;;;2.34;42.44;103066.56;7397779;19;20019;-66
2022/03/21 01:45:20;;;;;;;15.50;10.55;;;;;;;2.35;42.13;103073.53;7398810;19;20035;-66
2022/03/21 01:47:49;;;;;;;17.08;10.98;;;;;;;2.33;42.38;103081.25;7398315;19;20015;-66
2022/03/21 01:50:17;;;;;;;16.77;10.95;;;;;;;2.29;42.42;103079.31;7396075;19;20027;-66
2022/03/21 01:52:46;;;;;;;17.08;11.98;;;;;;;2.27;42.51;103076.66;7397472;19;20022;-66
2022/03/21 01:58:01;;;;;;;15.60;10.68;;;;;;;2.23;42.57;103071.25;7396764;19;20010;-66
2022/03/21 02:00:30;;;;;;;16.95;11.52;;;;;;;2.23;42.60;103076.44;7398194;19;20018;-66
2022/03/21 02:02:58;;;;;;;16.65;11.27;;;;;;;2.23;42.60;103071.25;7395689;19;20022;-66
2022/03/21 02:05:26;;;;;;;16.02;11.00;;;;;;;2.23;42.60;103064.34;7395470;19;20018;-67
2022/03/21 02:07:55;;;;;;;14.75;11.30;;;;;;;2.20;42.30;103066.81;7397599;19;20027;-66
2022/03/21 02:10:24;;;;;;;18.13;11.23;;;;;;;2.23;42.35;103066.06;7395603;19;20014;-66
2022/03/21 02:12:52;;;;;;;16.50;11.98;;;;;;;2.22;42.41;103065.16;7398258;19;20010;-66
2022/03/21 02:15:23;;;;;;;15.82;10.30;;;;;;;2.21;42.47;103058.22;7397975;19;20020;-66
2022/03/21 02:17:59;;;;;;;17.88;10.70;;;;;;;2.19;42.61;103059.84;7397660;19;20019;-67
2022/03/21 02:20:30;;;;;;;15.02;10.80;;;;;;;2.18;42.54;103052.88;7397518;19;20039;-66
2022/03/21 02:23:07;;;;;;;16.85;9.98;;;;;;;2.18;42.62;103055.47;7395668;19;20021;-66
2022/03/21 02:25:39;;;;;;;15.02;11.18;;;;;;;2.17;42.72;103056.25;7397437;19;20015;-66
2022/03/21 02:28:10;;;;;;;16.55;10.98;;;;;;;2.19;42.41;103051.19;7395624;19;20035;-67
2022/03/21 02:30:41;;;;;;;14.77;11.13;;;;;;;2.19;42.57;103057.25;7396719;19;20040;-66
2022/03/21 02:33:10;;;;;;;15.45;10.57;;;;;;;2.18;42.89;103055.47;7395109;19;20014;-67
2022/03/21 02:35:39;;;;;;;15.90;11.35;;;;;;;2.17;42.28;103057.97;7394984;19;20026;-66
2022/03/21 02:38:09;;;;;;;15.27;10.02;;;;;;;2.17;42.54;103060.56;7396510;19;20019;-66
2022/03/21 02:40:40;;;;;;;16.92;11.65;;;;;;;2.17;42.55;103057.97;7396479;19;20035;-67
2022/03/21 02:43:08;;;;;;;16.73;11.27;;;;;;;2.15;42.54;103049.22;7395065;19;20035;-66
2022/03/21 02:45:36;;;;;;;18.75;11.18;;;;;;;2.14;42.43;103047.44;7396424;19;20015;-67
2022/03/21 02:48:05;;;;;;;17.35;10.73;;;;;;;2.11;42.36;103053.38;7394696;19;20031;-67
2022/03/21 02:50:40;;;;;;;14.27;10.73;;;;;;;2.09;42.43;103049.84;7395709;19;20022;-66
2022/03/21 02:53:11;;;;;;;14.98;10.43;;;;;;;2.07;42.64;103043.66;7394720;19;20025;-66
2022/03/21 02:55:42;;;;;;;15.07;10.48;;;;;;;2.07;42.68;103048.84;7396528;19;20015;-66
2022/03/21 02:58:23;;;;;;;14.32;10.43;;;;;;;2.05;42.92;103045.31;7393345;19;20019;-66
2022/03/21 03:00:51;;;;;;;14.35;9.93;;;;;;;2.02;42.58;103047.72;7396085;19;20382;-67
2022/03/21 03:03:20;;;;;;;14.55;10.18;;;;;;;2.01;42.76;103051.13;7395114;19;20014;-66
2022/03/21 03:05:48;;;;;;;17.02;12.23;;;;;;;1.98;42.78;103044.09;7395897;19;20036;-66
2022/03/21 03:08:16;;;;;;;17.48;11.45;;;;;;;1.97;42.78;103046.63;7395566;19;20022;-65
2022/03/21 03:10:47;;;;;;;19.85;10.70;;;;;;;1.94;42.85;103050.81;7394833;19;20421;-65
2022/03/21 03:13:15;;;;;;;14.30;10.40;;;;;;;1.90;42.73;103040.25;7395473;19;20035;-66
2022/03/21 03:15:43;;;;;;;13.13;10.57;;;;;;;1.89;42.70;103043.63;7395019;19;20018;-64
2022/03/21 03:18:11;;;;;;;14.15;10.00;;;;;;;1.87;42.85;103045.25;7395083;19;20019;-67
2022/03/21 03:20:40;;;;;;;15.55;10.25;;;;;;;1.86;42.78;103046.06;7395793;19;20018;-66
2022/03/21 03:23:09;;;;;;;14.15;10.10;;;;;;;1.83;42.85;103041.59;7394430;19;20022;-67
2022/03/21 03:25:38;;;;;;;14.88;9.75;;;;;;;1.81;42.65;103044.94;7394957;19;20416;-66
2022/03/21 03:28:09;;;;;;;17.42;11.00;;;;;;;1.77;42.85;103041.31;7395107;19;20035;-65
2022/03/21 03:30:37;;;;;;;16.90;10.95;;;;;;;1.75;43.06;103040.34;7393615;19;20031;-66
2022/03/21 03:33:05;;;;;;;14.27;10.38;;;;;;;1.72;42.81;103038.50;7394124;19;20422;-65
2022/03/21 03:35:34;;;;;;;17.40;11.38;;;;;;;1.69;43.07;103043.50;7394581;19;20026;-65
2022/03/21 03:38:02;;;;;;;15.15;11.02;;;;;;;1.67;43.14;103037.38;7394013;19;20424;-65
2022/03/21 03:40:30;;;;;;;15.95;10.75;;;;;;;1.66;42.90;103048.53;7394137;19;20365;-65
2022/03/21 03:42:58;;;;;;;15.95;10.45;;;;;;;1.67;43.09;103049.41;7392748;19;20018;-66
2022/03/21 03:45:29;;;;;;;13.85;10.20;;;;;;;1.64;43.08;103047.53;7394311;19;20576;-67
2022/03/21 03:47:57;;;;;;;14.25;10.40;;;;;;;1.63;43.07;103054.44;7393016;19;20032;-66
2022/03/21 03:50:25;;;;;;;14.88;10.23;;;;;;;1.61;42.83;103063.78;7394528;19;20018;-66
2022/03/21 03:52:53;;;;;;;15.25;10.38;;;;;;;1.59;42.82;103059.34;7392178;19;20503;-66
2022/03/21 03:55:22;;;;;;;14.43;9.75;;;;;;;1.55;42.91;103053.13;7394592;19;20026;-65
2022/03/21 03:57:50;;;;;;;13.85;10.23;;;;;;;1.54;43.07;103056.53;7391534;19;20015;-65
2022/03/21 04:00:19;;;;;;;15.57;10.57;;;;;;;1.52;42.87;103052.09;7393656;19;20425;-65
2022/03/21 04:05:31;;;;;;;14.00;10.00;;;;;;;1.45;43.04;103046.59;7394156;19;20021;-66
2022/03/21 04:07:59;;;;;;;17.27;11.43;;;;;;;1.42;43.16;103043.81;7393956;19;20053;-67
2022/03/21 04:10:27;;;;;;;16.17;10.02;;;;;;;1.38;43.42;103039.31;7392448;19;20022;-66
2022/03/21 04:12:56;;;;;;;14.95;10.23;;;;;;;1.35;43.59;103049.47;7391402;19;20023;-66
2022/03/21 04:15:24;;;;;;;12.75;10.00;;;;;;;1.32;43.25;103043.28;7393527;19;20361;-66
2022/03/21 04:17:56;;;;;;;13.57;9.98;;;;;;;1.29;43.61;103049.19;7393862;19;20216;-66
2022/03/21 04:20:25;;;;;;;15.20;10.32;;;;;;;1.27;43.42;103053.38;7392006;19;20082;-67
2022/03/21 04:22:53;;;;;;;16.25;10.73;;;;;;;1.26;43.55;103057.66;7391472;19;20018;-66
2022/03/21 04:25:21;;;;;;;15.45;9.95;;;;;;;1.22;43.86;103058.28;7391363;19;20025;-67
2022/03/21 04:27:49;;;;;;;12.70;9.60;;;;;;;1.21;43.71;103065.97;7394444;19;20014;-65
2022/03/21 04:30:18;;;;;;;14.20;9.77;;;;;;;1.19;43.62;103071.06;7397924;19;20038;-66
2022/03/21 04:32:46;;;;;;;15.98;10.50;;;;;;;1.16;43.84;103067.41;7397516;19;20380;-66
2022/03/21 04:35:17;;;;;;;12.90;9.75;;;;;;;1.13;43.71;103071.59;7399707;19;20484;-67
2022/03/21 04:37:45;;;;;;;18.23;10.35;;;;;;;1.09;43.79;103064.47;7398071;19;20028;-66
2022/03/21 04:40:13;;;;;;;14.68;10.15;;;;;;;1.07;43.88;103060.91;7399371;19;20377;-66
2022/03/21 04:42:43;;;;;;;15.93;9.85;;;;;;;1.04;44.27;103054.72;7399215;19;20074;-66
2022/03/21 04:45:11;;;;;;;14.40;10.25;;;;;;;1.00;44.14;103057.91;7399817;19;20015;-66
2022/03/21 04:47:39;;;;;;;14.38;10.68;;;;;;;0.97;44.40;103061.22;7399725;19;20014;-66
2022/03/21 04:50:09;;;;;;;16.30;10.27;;;;;;;0.93;44.55;103056.69;7399678;19;20018;-66
2022/03/21 04:52:40;;;;;;;18.23;10.75;;;;;;;0.89;44.46;103049.59;7397832;19;20010;-66
2022/03/21 04:55:10;;;;;;;15.40;11.20;;;;;;;0.87;44.61;103056.34;7398062;19;20341;-65
2022/03/21 04:57:38;;;;;;;15.93;11.02;;;;;;;0.85;44.37;103060.53;7398163;19;20006;-68
2022/03/21 05:00:08;;;;;;;15.00;10.93;;;;;;;0.81;44.51;103062.97;7399366;19;20014;-66
2022/03/21 05:02:36;;;;;;;15.85;11.00;;;;;;;0.80;44.55;103071.50;7398996;19;20015;-66
2022/03/21 05:05:04;;;;;;;12.70;9.82;;;;;;;0.78;44.59;103073.13;7399116;19;20014;-66
2022/03/21 05:07:32;;;;;;;13.85;10.75;;;;;;;0.76;44.77;103079.91;7399106;19;20013;-66
2022/03/21 05:10:03;;;;;;;15.35;10.60;;;;;;;0.74;44.69;103072.88;7399198;19;20353;-67
2022/03/21 05:12:31;;;;;;;15.95;10.55;;;;;;;0.72;44.91;103079.63;7397389;19;20018;-66
2022/03/21 05:14:59;;;;;;;15.15;9.82;;;;;;;0.71;44.83;103075.25;7398729;19;20035;-65
2022/03/21 05:17:30;;;;;;;15.43;10.27;;;;;;;0.68;44.85;103069.94;7396382;19;20483;-66
2022/03/21 05:19:58;;;;;;;13.43;9.93;;;;;;;0.65;45.09;103076.69;7396957;19;20032;-66
2022/03/21 05:22:26;;;;;;;15.00;11.00;;;;;;;0.63;45.09;103078.34;7398306;19;20014;-66
2022/03/21 05:35:55;;;;;;;15.18;10.40;;;;;;;0.54;45.37;103087.25;7397998;19;20014;-66
2022/03/21 05:38:25;;;;;;;16.33;10.07;;;;;;;0.53;45.42;103086.38;7396305;19;20023;-66
2022/03/21 05:40:56;;;;;;;14.88;10.32;;;;;;;0.52;45.47;103094.00;7395178;19;20351;-66
2022/03/21 05:43:27;;;;;;;14.85;10.77;;;;;;;0.53;45.42;103096.69;7396848;19;20022;-65
2022/03/21 05:45:55;;;;;;;15.05;10.32;;;;;;;0.54;45.31;103100.16;7397455;19;20506;-66
2022/03/21 05:51:06;;;;;;;14.85;10.30;;;;;;;0.51;45.43;103097.41;7396970;19;20015;-66
2022/03/21 05:53:35;;;;;;;18.33;10.82;;;;;;;0.54;45.54;103100.16;7394788;19;20026;-66
2022/03/21 05:56:04;;;;;;;14.38;9.90;;;;;;;0.54;45.44;103098.44;7394717;19;20082;-65
2022/03/21 05:58:34;;;;;;;15.20;9.77;;;;;;;0.56;45.39;103101.16;7394700;19;20011;-66
2022/03/21 06:01:03;;;;;;;16.90;10.68;;;;;;;0.56;45.58;103091.69;7396423;19;20601;-65
2022/03/21 06:03:31;;;;;;;14.70;9.55;;;;;;;0.59;45.59;103101.31;7393810;19;20018;-66
2022/03/21 06:06:00;;;;;;;23.05;13.52;;;;;;;0.59;45.53;103103.91;7393492;19;20038;-66
2022/03/21 06:08:29;;;;;;;16.05;10.85;;;;;;;0.61;45.50;103098.00;7394126;19;20029;-66
2022/03/21 06:11:08;;;;;;;15.48;9.85;;;;;;;0.62;45.66;103106.63;7396737;19;20018;-67
2022/03/21 06:13:42;;;;;;;13.48;9.38;;;;;;;0.60;45.69;103109.16;7394146;19;20077;-66
2022/03/21 06:16:11;;;;;;;14.57;9.45;;;;;;;0.66;45.48;103108.63;7394403;19;20085;-67
2022/03/21 06:18:40;;;;;;;16.52;11.00;;;;;;;0.65;45.46;103105.13;7395815;19;20022;-66
2022/03/21 06:21:10;;;;;;;20.90;10.57;;;;;;;0.71;45.59;103114.94;7396350;19;20421;-65
2022/03/21 06:23:39;;;;;;;16.60;10.32;;;;;;;0.73;45.92;103107.25;7394405;19;20074;-66
2022/03/21 06:26:08;;;;;;;15.60;10.20;;;;;;;0.76;45.77;103102.28;7396278;19;20025;-67
2022/03/21 06:28:39;;;;;;;15.27;11.25;;;;;;;0.79;45.76;103100.75;7396325;19;20476;-66
2022/03/21 06:31:07;;;;;;;16.23;10.13;;;;;;;0.84;45.71;103107.88;7393890;19;20031;-66
2022/03/21 06:33:35;;;;;;;15.98;10.30;;;;;;;0.87;45.80;103108.91;7393641;19;20035;-66
2022/03/21 06:36:04;;;;;;;15.43;10.30;;;;;;;0.92;45.65;103111.78;7396807;19;20038;-66
2022/03/21 06:38:33;;;;;;;13.95;10.07;;;;;;;0.96;45.50;103111.13;7393243;19;20036;-67
2022/03/21 06:41:02;;;;;;;15.40;10.23;;;;;;;1.02;45.64;103113.19;7395194;19;20014;-66
2022/03/21 06:43:30;;;;;;;14.27;10.02;;;;;;;1.07;45.40;103115.22;7394432;19;20029;-66
2022/03/21 06:46:01;;;;;;;38.50;12.35;;;;;;;1.13;45.52;103112.97;7394867;19;20375;-66
2022/03/21 06:48:30;;;;;;;50.03;14.02;;;;;;;1.20;45.54;103102.97;7394611;19;20035;-65
2022/03/21 06:50:58;;;;;;;30.17;12.00;;;;;;;1.27;45.65;103095.63;7394439;19;20482;-65
2022/03/21 06:53:26;;;;;;;16.83;10.75;;;;;;;1.36;45.43;103094.34;7393418;19;20022;-66
2022/03/21 06:55:54;;;;;;;14.13;9.38;;;;;;;1.42;45.23;103097.28;7393468;19;20024;-65
2022/03/21 06:58:22;;;;;;;16.63;9.45;;;;;;;1.50;45.06;103102.84;7393705;19;20022;-66
2022/03/21 07:00:51;;;;;;;14.73;10.23;;;;;;;1.56;44.93;103098.88;7395662;19;20014;-65
2022/03/21 07:03:24;;;;;;;12.38;9.00;;;;;;;1.65;44.86;103100.19;7394188;19;20018;-65
2022/03/21 07:05:52;;;;;;;16.53;9.50;;;;;;;1.71;44.78;103111.75;7393503;19;20018;-68
2022/03/21 07:08:20;;;;;;;13.35;9.73;;;;;;;1.82;44.79;103106.25;7395257;19;20014;-67
2022/03/21 07:10:48;;;;;;;13.02;9.65;;;;;;;1.91;44.77;103117.09;7394826;19;20511;-66
2022/03/21 07:13:17;;;;;;;13.90;9.93;;;;;;;1.98;44.55;103113.13;7393610;19;20019;-66
2022/03/21 07:15:45;;;;;;;13.13;9.10;;;;;;;2.07;44.51;103116.19;7394518;19;20483;-67
2022/03/21 07:18:13;;;;;;;15.55;10.18;;;;;;;2.14;44.20;103105.34;7394836;19;20014;-67
2022/03/21 07:20:44;;;;;;;12.35;8.98;;;;;;;2.24;44.15;103115.34;7394845;19;20015;-66
2022/03/21 07:23:12;;;;;;;14.23;9.70;;;;;;;2.33;43.81;103116.63;7392811;19;20019;-66
2022/03/21 07:25:41;;;;;;;16.08;9.35;;;;;;;2.40;43.52;103108.34;7394573;19;20015;-66
2022/03/21 07:28:09;;;;;;;12.98;9.50;;;;;;;2.55;43.54;103116.00;7393135;19;20018;-66
2022/03/21 07:30:37;;;;;;;14.35;9.55;;;;;;;2.66;43.08;103117.41;7394271;19;20019;-67
2022/03/21 07:33:05;;;;;;;14.15;9.63;;;;;;;2.75;42.95;103115.25;7391250;19;20483;-66
2022/03/21 07:35:33;;;;;;;12.02;8.93;;;;;;;2.88;42.83;103113.25;7393962;19;20015;-67
2022/03/21 07:38:04;;;;;;;12.32;8.18;;;;;;;3.00;42.24;103107.78;7391269;19;20376;-66
2022/03/21 07:40:32;;;;;;;12.23;8.57;;;;;;;3.13;42.07;103111.84;7394478;19;20014;-65
2022/03/21 07:43:00;;;;;;;12.63;8.10;;;;;;;3.28;41.33;103115.16;7393601;19;20023;-67
2022/03/21 07:48:11;;;;;;;14.10;8.18;;;;;;;3.57;40.69;103105.22;7394197;19;20006;-65
2022/03/21 07:50:41;;;;;;;12.00;7.90;;;;;;;3.71;39.92;103098.94;7394450;19;20019;-66
2022/03/21 07:53:12;;;;;;;10.80;7.43;;;;;;;3.86;38.58;103098.72;7392567;19;20014;-66
2022/03/21 07:55:40;;;;;;;10.98;7.70;;;;;;;4.02;39.07;103105.50;7394004;19;20494;-67
2022/03/21 07:58:09;;;;;;;10.48;7.85;;;;;;;4.15;38.54;103106.03;7392738;19;20014;-65
2022/03/21 08:00:37;;;;;;;13.25;7.38;;;;;;;4.29;38.27;103099.69;7393644;19;20022;-65
2022/03/21 08:03:07;;;;;;;13.13;7.30;;;;;;;4.43;37.33;103109.78;7392804;19;20023;-66
2022/03/21 08:05:35;;;;;;;9.82;7.45;;;;;;;4.57;37.34;103106.03;7401633;19;20030;-65
2022/03/21 08:08:03;;;;;;;10.90;7.35;;;;;;;4.70;36.83;103105.72;7398186;19;20027;-66
2022/03/21 08:10:34;;;;;;;10.98;7.90;;;;;;;4.83;36.63;103101.03;7398158;19;20022;-66
2022/03/21 08:13:02;;;;;;;10.13;7.68;;;;;;;4.94;36.55;103107.53;7399518;19;20504;-66
2022/03/21 08:15:32;;;;;;;9.52;7.38;;;;;;;5.03;36.06;103105.28;7400187;19;20014;-66
2022/03/21 08:18:03;;;;;;;10.50;8.45;;;;;;;5.11;34.71;103097.78;7397961;19;20023;-67
2022/03/21 08:20:33;;;;;;;8.57;7.25;;;;;;;5.19;35.75;103101.56;7398018;19;20034;-67
2022/03/21 08:23:11;;;;;;;9.40;6.80;;;;;;;5.27;35.34;103094.06;7399515;19;20025;-66
2022/03/21 08:25:45;;;;;;;10.02;7.78;;;;;;;5.36;34.99;103102.19;7398046;19;20035;-66
2022/03/21 08:28:14;;;;;;;10.40;7.45;;;;;;;5.44;35.34;103094.69;7397902;19;20022;-66
2022/03/21 08:30:43;;;;;;;9.10;7.13;;;;;;;5.53;35.48;103096.75;7400255;19;20024;-66
2022/03/21 08:33:12;;;;;;;13.30;7.70;;;;;;;5.63;34.81;103097.97;7398485;19;20018;-66
2022/03/21 08:35:42;;;;;;;9.90;7.97;;;;;;;5.70;33.64;103100.84;7397611;19;20024;-67
2022/03/21 08:38:12;;;;;;;13.48;9.00;;;;;;;5.78;33.85;103090.69;7399861;19;20479;-67
2022/03/21 08:40:43;;;;;;;9.38;6.95;;;;;;;5.85;32.70;103086.59;7397621;19;20057;-68
2022/03/21 08:43:11;;;;;;;12.20;7.55;;;;;;;5.92;33.48;103085.09;7398975;19;20028;-67
2022/03/21 08:45:40;;;;;;;11.73;7.85;;;;;;;5.97;32.85;103087.03;7400066;19;20022;-67
2022/03/21 08:48:08;;;;;;;11.20;7.30;;;;;;;6.05;33.12;103081.25;7400570;19;20035;-67
2022/03/21 08:50:37;;;;;;;9.88;7.05;;;;;;;6.09;32.76;103081.41;7398401;19;20020;-67
2022/03/21 08:53:07;;;;;;;9.63;7.47;;;;;;;6.11;32.57;103078.84;7398761;19;20028;-67
2022/03/21 08:55:35;;;;;;;9.68;6.90;;;;;;;6.22;32.64;103084.41;7397156;19;20022;-67
2022/03/21 08:58:06;;;;;;;11.65;7.47;;;;;;;6.27;31.45;103085.44;7397799;19;20037;-67
2022/03/21 09:00:40;;;;;;;12.93;8.23;;;;;;;6.32;31.44;103084.78;7399963;19;20015;-68
2022/03/21 09:03:09;;;;;;;10.32;7.32;;;;;;;6.38;31.96;103080.59;7397745;19;20483;-68
2022/03/21 09:05:37;;;;;;;12.55;7.97;;;;;;;6.43;32.25;103074.72;7396742;19;20023;-67
2022/03/21 09:08:05;;;;;;;9.88;6.85;;;;;;;6.49;31.86;103077.50;7397059;19;20018;-67
2022/03/21 09:10:33;;;;;;;10.30;7.50;;;;;;;6.54;31.82;103072.44;7398865;19;20018;-66
2022/03/21 09:13:01;;;;;;;13.55;7.03;;;;;;;6.60;32.12;103074.38;7397709;19;20097;-67
2022/03/21 09:15:34;;;;;;;9.10;7.40;;;;;;;6.65;32.10;103065.84;7398427;19;20015;-67
2022/03/21 09:18:02;;;;;;;11.30;7.65;;;;;;;6.74;32.29;103070.47;7396987;19;20035;-68
2022/03/21 09:20:31;;;;;;;11.70;7.40;;;;;;;6.83;32.13;103075.09;7396554;19;20023;-68
2022/03/21 09:22:59;;;;;;;9.73;6.80;;;;;;;6.93;31.45;103082.38;7397454;19;20014;-68
2022/03/21 09:25:27;;;;;;;9.75;6.72;;;;;;;6.99;31.19;103077.34;7396078;19;20019;-68
2022/03/21 09:27:55;;;;;;;10.77;7.22;;;;;;;7.07;30.45;103067.13;7398361;19;20052;-67
2022/03/21 09:30:24;;;;;;;10.98;6.82;;;;;;;7.13;30.46;103075.16;7396172;19;20037;-67
2022/03/21 09:32:54;;;;;;;10.75;7.45;;;;;;;7.20;30.93;103072.72;7396925;19;20018;-67
2022/03/21 09:35:23;;;;;;;8.00;6.53;;;;;;;7.25;30.88;103061.56;7397882;19;20027;-66
2022/03/21 09:37:51;;;;;;;8.98;6.97;;;;;;;7.33;30.88;103069.66;7395298;19;20011;-68
2022/03/21 09:40:20;;;;;;;8.13;6.78;;;;;;;7.39;31.38;103059.34;7397993;19;20021;-68
2022/03/21 09:42:49;;;;;;;9.60;6.82;;;;;;;7.46;30.15;103058.69;7397130;19;20022;-70
2022/03/21 09:45:17;;;;;;;9.73;7.53;;;;;;;7.55;30.65;103060.69;7398007;19;20018;-68
2022/03/21 09:50:35;;;;;;;10.10;6.65;;;;;;;7.68;30.00;103067.13;7394426;19;20460;-71
2022/03/21 09:53:04;;;;;;;8.80;6.03;;;;;;;7.76;29.85;103059.50;7395955;19;20018;-70
2022/03/21 09:55:32;;;;;;;8.48;6.13;;;;;;;7.85;31.99;103059.75;7397645;19;20035;-69
2022/03/21 09:58:01;;;;;;;10.20;7.03;;;;;;;7.95;30.05;103050.44;7396605;19;20007;-69
2022/03/21 10:00:29;;;;;;;11.35;7.40;;;;;;;8.01;29.83;103047.97;7397508;19;20035;-66
2022/03/21 10:02:58;;;;;;;13.00;6.82;;;;;;;8.06;29.66;103043.75;7396584;19;20023;-66
2022/03/21 10:05:37;;;;;;;11.48;7.32;;;;;;;8.11;29.37;103043.84;7395093;19;20035;-68
2022/03/21 10:08:17;;;;;;;13.60;7.47;;;;;;;8.14;29.28;103034.38;7397388;19;20019;-69
2022/03/21 10:10:57;;;;;;;8.35;6.70;;;;;;;8.26;28.54;103038.13;7397747;19;20029;-66
2022/03/21 10:13:27;;;;;;;9.77;7.30;;;;;;;8.29;28.37;103041.72;7395486;19;20014;-67
2022/03/21 10:16:22;;;;;;;7.72;6.70;;;;;;;8.37;28.64;103044.50;7397053;19;20029;-71
2022/03/21 10:19:01;;;;;;;11.65;6.78;;;;;;;8.44;28.55;103037.69;7394555;19;20019;-67
2022/03/21 10:21:32;;;;;;;12.02;7.28;;;;;;;8.49;28.87;103043.94;7396076;19;20074;-65
2022/03/21 10:24:02;;;;;;;12.70;8.07;;;;;;;8.56;28.75;103045.88;7394985;19;20023;-67
2022/03/21 10:26:32;;;;;;;17.58;7.20;;;;;;;8.60;28.90;103042.47;7392063;19;20483;-66
2022/03/21 10:29:02;;;;;;;14.98;6.90;;;;;;;8.66;28.18;103043.44;7396267;19;20043;-65
2022/03/21 10:31:39;;;;;;;13.50;7.40;;;;;;;8.71;27.60;103039.25;7394559;19;20153;-68
2022/03/21 10:34:09;;;;;;;9.93;6.40;;;;;;;8.77;27.58;103031.50;7394175;19;20015;-67
2022/03/21 10:36:59;;;;;;;9.60;6.90;;;;;;;8.83;27.67;103025.53;7396098;19;20037;-67
2022/03/21 10:39:28;;;;;;;9.98;6.95;;;;;;;8.86;27.55;103028.19;7397789;19;20025;-66
2022/03/21 10:41:59;;;;;;;7.95;6.05;;;;;;;8.93;27.87;103027.50;7397353;19;20015;-67
2022/03/21 10:44:28;;;;;;;12.57;6.80;;;;;;;8.98;27.77;103035.47;7394161;19;20018;-66
2022/03/21 10:46:58;;;;;;;9.23;6.05;;;;;;;9.03;28.16;103034.69;7395851;19;20011;-65
2022/03/21 10:49:32;;;;;;;9.85;6.13;;;;;;;9.11;27.17;103033.13;7394062;19;20043;-66
2022/03/21 10:52:05;;;;;;;8.00;6.00;;;;;;;9.16;26.83;103025.34;7395565;19;20014;-67
2022/03/21 10:54:42;;;;;;;9.63;6.20;;;;;;;9.24;27.58;103028.16;7393228;19;20019;-67
2022/03/21 10:57:28;;;;;;;8.60;6.88;;;;;;;9.30;27.01;103025.63;7394243;19;20410;-66
2022/03/21 11:00:15;;;;;;;7.43;6.57;;;;;;;9.34;26.77;103019.63;7395278;19;20019;-67
2022/03/21 11:02:52;;;;;;;8.82;7.03;;;;;;;9.39;27.01;103020.59;7395413;19;20027;-67
2022/03/21 11:05:22;;;;;;;9.68;6.97;;;;;;;9.49;27.54;103021.66;7396104;19;20022;-67
2022/03/21 11:07:53;;;;;;;10.13;6.63;;;;;;;9.55;27.15;103021.75;7396150;19;20018;-67
2022/03/21 11:10:23;;;;;;;7.95;6.63;;;;;;;9.59;27.64;103006.97;7393799;19;20045;-72
2022/03/21 11:12:51;;;;;;;9.65;7.13;;;;;;;9.69;27.40;103013.28;7394285;19;20476;-70
2022/03/21 11:15:19;;;;;;;11.40;6.95;;;;;;;9.77;27.57;103011.69;7393131;19;20014;-66
2022/03/21 11:17:48;;;;;;;9.43;6.22;;;;;;;9.85;27.05;102998.72;7395786;19;20039;-67
2022/03/21 11:20:17;;;;;;;8.43;6.38;;;;;;;9.92;26.65;103006.72;7395737;19;20024;-68
2022/03/21 11:22:46;;;;;;;10.18;6.82;;;;;;;10.00;26.79;103005.97;7392819;19;20015;-65
2022/03/21 11:25:18;;;;;;;7.28;6.15;;;;;;;10.08;26.15;103001.72;7394363;19;20015;-67
2022/03/21 11:28:43;;;;;;;9.35;6.68;;;;;;;10.18;25.80;102994.88;7394451;19;20027;-67
2022/03/21 11:31:22;;;;;;;8.60;5.88;;;;;;;10.28;25.80;102997.66;7388892;19;20116;-66
2022/03/21 11:33:56;;;;;;;7.90;5.95;;;;;;;10.37;26.24;103001.34;7392391;19;20384;-67
2022/03/21 11:36:26;;;;;;;8.23;5.97;;;;;;;10.44;25.88;102987.47;7392249;19;20074;-70
2022/03/21 11:39:00;;;;;;;6.63;5.32;;;;;;;10.47;24.84;102987.50;7398281;19;20023;-67
2022/03/21 11:41:32;;;;;;;10.45;6.05;;;;;;;10.59;25.31;102982.44;7402238;19;20018;-65
2022/03/21 11:44:14;;;;;;;10.68;6.43;;;;;;;10.66;24.40;102975.50;7398824;19;20372;-67
2022/03/21 11:46:45;;;;;;;9.40;5.85;;;;;;;10.73;25.59;102981.75;7402411;19;20014;-67
2022/03/21 11:49:43;;;;;;;8.32;5.63;;;;;;;10.81;24.63;102977.47;7402019;19;20018;-67
2022/03/21 11:52:12;;;;;;;8.18;6.53;;;;;;;10.90;25.58;102966.19;7401754;19;20042;-67
2022/03/21 11:54:40;;;;;;;8.60;5.85;;;;;;;10.98;24.90;102966.28;7398290;19;20019;-68
2022/03/21 11:57:12;;;;;;;9.60;6.15;;;;;;;11.04;24.30;102954.09;7398406;19;20018;-67
2022/03/21 11:59:56;;;;;;;8.65;6.55;;;;;;;11.13;24.22;102953.31;7398062;19;20011;-67